createdAt,value
2022-12-28T00:14:45.994Z,1017.57
2022-12-28T00:29:46.552Z,1017.39
2022-12-28T00:44:47.690Z,1017.23
2022-12-28T00:59:48.340Z,1017.30
2022-12-28T01:14:49.423Z,1017.02
2022-12-28T01:29:50.155Z,1016.83
2022-12-28T01:44:51.683Z,1016.67
2022-12-28T01:59:52.313Z,1016.22
2022-12-28T02:14:53.909Z,1016.00
2022-12-28T02:29:54.932Z,1015.64
2022-12-28T02:44:55.578Z,1015.42
2022-12-28T02:59:57.701Z,1014.98
2022-12-28T03:14:58.300Z,1014.60
2022-12-28T03:29:58.970Z,1014.55
2022-12-28T03:44:59.546Z,1014.18
2022-12-28T04:00:00.752Z,1014.00
2022-12-28T04:15:02.311Z,1013.74
2022-12-28T04:30:03.011Z,1013.47
2022-12-28T04:45:04.604Z,1013.28
2022-12-28T05:00:06.177Z,1013.43
2022-12-28T05:15:06.310Z,1013.18
2022-12-28T05:30:06.926Z,1013.06
2022-12-28T05:45:07.533Z,1012.78
2022-12-28T06:00:08.170Z,1012.49
2022-12-28T06:15:08.771Z,1012.25
2022-12-28T06:30:09.393Z,1012.03
2022-12-28T06:45:10.005Z,1011.86
2022-12-28T07:00:10.634Z,1011.63
2022-12-28T07:15:11.260Z,1011.48
2022-12-28T07:30:11.893Z,1011.37
2022-12-28T07:45:12.522Z,1011.17
2022-12-28T08:00:14.158Z,1010.97
2022-12-28T08:15:15.227Z,1010.78
2022-12-28T08:30:15.358Z,1010.56
2022-12-28T08:45:15.965Z,1010.37
2022-12-28T09:00:17.612Z,1010.31
2022-12-28T09:15:18.335Z,1010.08
2022-12-28T09:30:18.938Z,1009.85
2022-12-28T09:45:20.028Z,1009.88
2022-12-28T10:00:21.173Z,1009.60
2022-12-28T10:15:21.407Z,1009.62
2022-12-28T10:30:22.435Z,1009.42
2022-12-28T10:45:24.737Z,1009.32
2022-12-28T11:00:25.024Z,1009.31
2022-12-28T11:15:26.968Z,1009.09
2022-12-28T11:30:27.373Z,1008.95
2022-12-28T11:45:28.018Z,1008.76
2022-12-28T12:00:28.569Z,1008.54
2022-12-28T12:15:29.227Z,1008.41
2022-12-28T12:30:32.042Z,1008.28
2022-12-28T12:45:32.380Z,1008.24
2022-12-28T13:00:33.002Z,1008.21
2022-12-28T13:15:33.626Z,1008.13
2022-12-28T13:30:34.271Z,1008.01
2022-12-28T13:45:35.358Z,1008.03
2022-12-28T14:00:35.229Z,1008.15
2022-12-28T14:15:41.059Z,1008.18
2022-12-28T14:30:42.139Z,1008.12
2022-12-28T14:46:06.852Z,1008.10
2022-12-28T15:00:49.031Z,1008.08
2022-12-28T15:15:49.710Z,1008.13
2022-12-28T15:30:50.324Z,1008.13
2022-12-28T15:45:50.922Z,1008.14
2022-12-28T16:00:51.740Z,1008.06
2022-12-28T16:15:53.645Z,1008.03
2022-12-28T16:30:53.771Z,1007.89
2022-12-28T16:45:54.905Z,1007.82
2022-12-28T17:00:56.155Z,1007.89
2022-12-28T17:15:56.581Z,1007.73
2022-12-28T17:30:57.240Z,1007.79
2022-12-28T17:45:58.855Z,1007.63
2022-12-28T18:00:59.726Z,1007.42
2022-12-28T18:16:00.128Z,1007.31
2022-12-28T18:31:02.475Z,1007.20
2022-12-28T18:46:03.339Z,1007.04
2022-12-28T19:01:04.525Z,1007.08
2022-12-28T19:16:04.949Z,1007.16
2022-12-28T19:31:05.610Z,1007.21
2022-12-28T19:46:06.254Z,1006.93
2022-12-28T20:01:07.348Z,1006.00
2022-12-28T20:16:08.525Z,1006.39
2022-12-28T20:31:09.121Z,1006.61
2022-12-28T20:46:09.785Z,1006.26
2022-12-28T21:01:10.447Z,1005.93
2022-12-28T21:16:11.567Z,1005.47
2022-12-28T21:31:12.903Z,1005.19
2022-12-28T21:46:15.061Z,1004.98
2022-12-28T22:01:15.556Z,1004.67
2022-12-28T22:16:17.251Z,1004.40
2022-12-28T22:31:17.560Z,1004.28
2022-12-28T22:46:18.043Z,1004.31
2022-12-28T23:01:18.857Z,1004.07
2022-12-28T23:16:19.832Z,1003.79
2022-12-28T23:31:21.069Z,1003.63
2022-12-28T23:46:22.578Z,1003.47
